Date,TemperatureHighF,TemperatureAvgF,TemperatureLowF,DewpointHighF,DewpointAvgF,DewpointLowF,HumidityHigh,HumidityAvg,HumidityLow,PressureMaxIn,PressureMinIn,WindSpeedMaxMPH,WindSpeedAvgMPH,GustSpeedMaxMPH,PrecipitationSumIn
2013-4-1,43,37,28,40,29,14,90,72,44,29.87,29.61,24,6,24,0.04
2013-4-2,37,28,23,20,16,12,85,59,41,30.04,29.87,22,6,22,0.00
2013-4-3,36,28,22,23,14,10,75,57,41,30.26,30.03,25,5,25,0.00
2013-4-4,47,32,15,19,13,7,78,49,26,30.24,29.90,19,5,20,0.00
2013-4-5,52,40,29,30,23,18,70,51,32,30.02,29.83,25,5,25,0.00
2013-4-6,58,39,22,21,19,15,79,50,20,30.17,30.02,17,5,17,0.00
2013-4-7,66,53,42,47,34,20,74,49,40,30.04,29.86,22,7,22,0.00
2013-4-8,71,58,41,51,44,36,92,63,39,30.01,29.89,16,3,16,0.02
2013-4-9,77,66,59,54,51,46,77,60,43,30.07,29.90,21,5,21,0.00
2013-4-10,78,68,57,60,55,49,89,64,48,29.96,29.83,19,6,20,0.21
2013-4-11,74,61,50,60,53,47,93,78,52,29.88,29.71,18,4,18,0.01
2013-4-12,66,54,42,58,47,33,94,80,48,29.77,29.58,23,9,23,0.57
2013-4-13,56,44,36,36,32,28,79,65,43,29.89,29.75,17,6,17,0.00
2013-4-14,64,47,32,36,31,24,80,56,33,30.06,29.89,18,4,18,0.08
2013-4-15,60,55,50,48,44,35,82,66,50,30.13,30.00,27,11,28,0.00
2013-4-16,78,62,52,58,53,48,92,74,45,30.16,30.02,28,7,28,0.64
2013-4-17,63,57,53,56,53,51,96,88,75,30.18,30.10,14,2,14,0.01
2013-4-18,76,62,56,63,56,50,90,79,61,30.14,29.84,28,11,28,0.00
2013-4-19,70,57,41,60,51,33,92,79,65,29.84,29.54,29,12,29,0.30
2013-4-20,46,38,32,33,27,22,89,67,44,30.26,29.77,24,8,24,0.00
2013-4-21,57,38,25,29,22,17,80,54,27,30.44,30.26,13,3,13,0.00
2013-4-22,60,45,36,31,27,23,72,51,29,30.40,30.25,21,8,21,0.00
2013-4-23,72,49,33,43,35,27,81,62,34,30.25,29.99,15,5,15,0.00
2013-4-24,72,54,37,57,45,33,91,72,50,30.03,29.70,25,6,25,0.26
2013-4-25,60,43,33,35,30,24,92,63,28,30.25,30.02,18,6,20,0.00
2013-4-26,63,46,32,36,30,24,85,57,24,30.36,30.24,11,2,12,0.00
2013-4-27,74,52,32,41,34,25,81,54,29,30.32,30.16,17,5,17,0.00
2013-4-28,54,49,46,47,42,36,92,77,55,30.17,29.99,20,9,23,0.08
2013-4-29,55,51,47,51,48,43,93,89,84,30.02,29.95,17,7,17,0.01
2013-4-30,64,54,50,55,50,48,92,86,70,30.20,30.01,16,7,16,0.00